Time;durP1;ratioP1;P1;durP2;ratioP2;P2;SDS_P1;SDS_P2;PMS_P1;PMS_P2;Temp;Humidity;BMP_temperature;BMP_pressure;BME280_temperature;BME280_humidity;BME280_pressure;Samples;Min_cycle;Max_cycle;Signal;HPM_P1;HPM_P2
2022/03/07 00:02:16;;;;;;;;;55.25;48.50;;;;;2.92;52.30;101476.41;4972631;28;45463;-77
2022/03/07 00:04:41;;;;;;;;;64.25;51.25;;;;;2.87;53.47;101480.66;4975400;28;45481;-77
2022/03/07 00:07:06;;;;;;;;;54.50;43.25;;;;;2.83;52.65;101481.41;4976607;28;45428;-77
2022/03/07 00:09:32;;;;;;;;;64.00;49.25;;;;;2.79;52.94;101476.94;4963563;28;46256;-77
2022/03/07 00:11:57;;;;;;;;;65.75;43.50;;;;;2.75;53.37;101481.19;4957542;28;45243;-76
2022/03/07 00:14:22;;;;;;;;;58.00;49.00;;;;;2.72;52.67;101481.13;4958124;28;45423;-78
2022/03/07 00:16:48;;;;;;;;;66.25;48.75;;;;;2.70;53.09;101472.34;4976693;28;45328;-76
2022/03/07 00:19:13;;;;;;;;;53.50;47.50;;;;;2.70;53.55;101477.56;4995024;28;46478;-76
2022/03/07 00:21:39;;;;;;;;;50.25;45.00;;;;;2.68;53.23;101484.47;4977466;28;45415;-77
2022/03/07 00:24:06;;;;;;;;;38.50;33.50;;;;;2.58;53.80;101472.91;4975970;28;45458;-77
2022/03/07 00:26:31;;;;;;;;;50.00;45.50;;;;;2.62;53.79;101473.88;4975804;28;45258;-77
2022/03/07 00:28:57;;;;;;;;;52.50;43.50;;;;;2.59;54.05;101474.66;4958568;28;46531;-77
2022/03/07 00:31:23;;;;;;;;;39.25;35.75;;;;;2.56;54.46;101487.63;4989556;28;45448;-77
2022/03/07 00:33:49;;;;;;;;;65.25;46.00;;;;;2.55;53.80;101491.13;4974745;28;45495;-77
2022/03/07 00:36:15;;;;;;;;;48.25;42.25;;;;;2.51;53.85;101489.25;4995802;28;45891;-76
2022/03/07 00:38:41;;;;;;;;;44.75;40.50;;;;;2.48;53.76;101486.56;4989752;28;46097;-74
2022/03/07 00:41:08;;;;;;;;;59.75;44.50;;;;;2.45;53.99;101491.69;4975230;28;45458;-77
2022/03/07 00:43:34;;;;;;;;;50.50;46.00;;;;;2.45;54.88;101483.88;4955964;28;45553;-76
2022/03/07 00:45:59;;;;;;;;;51.00;42.75;;;;;2.44;53.84;101480.34;4982463;28;45389;-76
2022/03/07 00:48:25;;;;;;;;;48.75;44.00;;;;;2.38;54.83;101484.53;4975288;28;47351;-76
2022/03/07 00:50:52;;;;;;;;;54.25;45.00;;;;;2.36;54.53;101471.44;4993906;28;45548;-76
2022/03/07 00:53:20;;;;;;;;;38.00;34.00;;;;;2.36;54.23;101475.78;4980973;28;45443;-77
2022/03/07 00:55:46;;;;;;;;;40.75;36.00;;;;;2.33;55.17;101480.91;4975527;28;45562;-76
2022/03/07 00:58:12;;;;;;;;;46.75;37.50;;;;;2.34;54.27;101483.56;4974669;28;45675;-76
2022/03/07 01:00:39;;;;;;;;;48.00;40.50;;;;;2.31;54.23;101484.34;4964317;28;45431;-76
2022/03/07 01:03:05;;;;;;;;;47.75;37.50;;;;;2.28;54.30;101476.44;4994331;28;45417;-77
2022/03/07 01:05:31;;;;;;;;;36.25;32.50;;;;;2.26;55.54;101478.13;4994864;28;45354;-76
2022/03/07 01:07:56;;;;;;;;;45.00;40.25;;;;;2.22;55.30;101478.00;4977119;28;48214;-76
2022/03/07 01:10:22;;;;;;;;;38.25;34.50;;;;;2.16;55.32;101465.66;4979650;28;45801;-75
2022/03/07 01:12:47;;;;;;;;;32.75;29.25;;;;;2.16;55.31;101470.88;4994255;28;45426;-76
2022/03/07 01:15:14;;;;;;;;;48.25;41.25;;;;;2.16;55.28;101468.28;4996520;28;45471;-76
2022/03/07 01:17:40;;;;;;;;;48.00;40.50;;;;;2.17;55.34;101475.25;4994886;28;45459;-75
2022/03/07 01:20:06;;;;;;;;;46.75;40.50;;;;;2.15;55.00;101489.09;4994708;28;45426;-76
2022/03/07 01:22:32;;;;;;;;;49.00;44.00;;;;;2.12;55.32;101479.44;4993762;28;45500;-76
2022/03/07 01:24:58;;;;;;;;;48.50;40.75;;;;;2.08;55.43;101469.75;4993356;28;45438;-77
2022/03/07 01:27:23;;;;;;;;;39.25;29.50;;;;;2.06;55.85;101472.31;4958070;28;46963;-76
2022/03/07 01:29:49;;;;;;;;;52.25;44.50;;;;;2.07;55.48;101473.22;4956346;28;45488;-75
2022/03/07 01:32:14;;;;;;;;;49.00;38.00;;;;;2.06;55.25;101468.84;4992871;28;45357;-76
2022/03/07 01:34:40;;;;;;;;;44.00;33.00;;;;;2.07;55.61;101468.00;4994443;28;45428;-76
2022/03/07 01:37:05;;;;;;;;;49.00;39.00;;;;;2.01;56.23;101462.63;4994012;28;45388;-76
2022/03/07 01:39:31;;;;;;;;;41.25;31.50;;;;;2.01;55.75;101470.44;4994267;28;45392;-75
2022/03/07 01:41:56;;;;;;;;;35.25;26.00;;;;;1.94;55.26;101462.44;4991615;28;46015;-76
2022/03/07 01:44:24;;;;;;;;;34.25;33.50;;;;;1.99;55.58;101470.41;4993630;28;45394;-76
2022/03/07 01:46:50;;;;;;;;;24.75;24.75;;;;;1.99;55.84;101474.69;4994274;28;46157;-76
2022/03/07 01:49:16;;;;;;;;;39.50;32.50;;;;;1.95;56.02;101468.53;4986328;28;45400;-76
2022/03/07 01:51:43;;;;;;;;;42.25;36.25;;;;;1.94;55.91;101467.66;4988924;28;45446;-75
2022/03/07 01:54:11;;;;;;;;;48.50;38.00;;;;;1.93;55.68;101467.59;4994020;28;45427;-76
2022/03/07 01:56:36;;;;;;;;;39.75;31.00;;;;;1.91;56.25;101466.66;4994002;28;45432;-75
2022/03/07 01:59:03;;;;;;;;;41.00;36.25;;;;;1.91;56.28;101466.66;4987568;28;45446;-76
2022/03/07 02:01:29;;;;;;;;;39.00;38.50;;;;;1.82;56.44;101456.84;4990208;28;45633;-76
2022/03/07 02:03:55;;;;;;;;;50.50;37.75;;;;;1.81;56.69;101449.88;4997553;28;45585;-76
2022/03/07 02:06:21;;;;;;;;;39.50;34.75;;;;;1.84;55.59;101455.19;4997785;28;45411;-76
2022/03/07 02:08:48;;;;;;;;;41.00;31.25;;;;;1.81;56.42;101447.25;4993045;28;45492;-75
2022/03/07 02:11:15;;;;;;;;;37.00;34.00;;;;;1.80;56.62;101448.09;4977773;28;45840;-77
2022/03/07 02:13:41;;;;;;;;;43.00;39.00;;;;;1.77;56.18;101443.66;4976726;28;45503;-77
2022/03/07 02:16:06;;;;;;;;;43.25;35.25;;;;;1.76;56.49;101448.84;4977030;28;45507;-75
2022/03/07 02:18:31;;;;;;;;;36.50;34.75;;;;;1.78;56.96;101444.56;4994568;28;45331;-76
2022/03/07 02:21:09;;;;;;;;;44.25;33.00;;;;;1.74;56.99;101440.97;4999585;28;45512;-76
2022/03/07 02:23:35;;;;;;;;;40.75;35.00;;;;;1.73;56.66;101435.69;4998011;28;45492;-76
2022/03/07 02:26:09;;;;;;;;;40.50;31.25;;;;;1.70;56.65;101436.53;4997210;28;46285;-76
2022/03/07 02:28:34;;;;;;;;;41.00;35.00;;;;;1.68;56.80;101435.56;4993605;28;45795;-77
2022/03/07 02:31:00;;;;;;;;;47.75;38.75;;;;;1.68;56.95;101432.09;4989012;28;45414;-76
2022/03/07 02:33:25;;;;;;;;;44.75;37.25;;;;;1.62;57.10;101429.31;4997501;28;45441;-76
2022/03/07 02:35:50;;;;;;;;;32.00;26.50;;;;;1.59;56.55;101425.78;4996951;28;46169;-77
2022/03/07 02:38:16;;;;;;;;;42.00;26.50;;;;;1.56;56.73;101428.28;4996263;28;45459;-75
2022/03/07 02:40:42;;;;;;;;;34.75;33.00;;;;;1.57;56.72;101423.94;4978109;28;45471;-75
2022/03/07 02:43:08;;;;;;;;;40.00;31.25;;;;;1.50;56.79;101422.84;4996343;28;45426;-77
2022/03/07 02:45:33;;;;;;;;;42.25;36.75;;;;;1.51;56.71;101414.22;4996860;28;45429;-76
2022/03/07 02:47:59;;;;;;;;;47.50;34.00;;;;;1.47;56.56;101409.75;4996823;28;45320;-75
2022/03/07 02:50:24;;;;;;;;;43.75;41.50;;;;;1.46;56.76;101421.03;4994503;28;45499;-76
2022/03/07 02:52:50;;;;;;;;;33.25;30.00;;;;;1.47;57.33;101417.56;4994904;28;45439;-76
2022/03/07 02:55:15;;;;;;;;;39.25;32.75;;;;;1.45;56.75;101411.44;4994816;28;45343;-76
2022/03/07 02:57:40;;;;;;;;;46.00;45.00;;;;;1.40;56.70;101415.63;4997025;28;45521;-77
2022/03/07 03:00:06;;;;;;;;;39.50;33.75;;;;;1.28;57.19;101391.81;4981314;28;45542;-75
2022/03/07 03:02:32;;;;;;;;;31.75;28.00;;;;;1.38;56.90;101409.47;4982900;28;45568;-76
2022/03/07 03:04:57;;;;;;;;;41.00;35.00;;;;;1.34;56.92;101407.63;4977350;28;45434;-76
2022/03/07 03:07:22;;;;;;;;;37.50;33.25;;;;;1.31;57.07;101412.75;4977511;28;45492;-76
2022/03/07 03:09:48;;;;;;;;;31.75;30.75;;;;;1.33;57.01;101405.84;4976780;28;45479;-76
2022/03/07 03:12:13;;;;;;;;;44.75;35.50;;;;;1.32;57.62;101407.56;4965542;28;45484;-77
2022/03/07 03:14:39;;;;;;;;;35.25;31.75;;;;;1.27;57.19;101397.84;4995687;28;46292;-77
2022/03/07 03:17:05;;;;;;;;;32.50;30.25;;;;;1.28;57.27;101394.41;4996434;28;45619;-76
2022/03/07 03:19:30;;;;;;;;;43.50;36.25;;;;;1.26;56.96;101390.84;4996983;28;45451;-76
2022/03/07 03:21:55;;;;;;;;;30.75;22.25;;;;;1.26;57.63;101399.56;4983485;28;45487;-76
2022/03/07 03:24:21;;;;;;;;;35.00;32.25;;;;;1.25;57.71;101397.78;4987890;28;45472;-75
2022/03/07 03:26:46;;;;;;;;;43.75;33.75;;;;;1.22;57.73;101397.69;4997467;28;45384;-76
2022/03/07 03:29:11;;;;;;;;;32.50;28.00;;;;;1.19;57.16;101398.47;4988794;28;45581;-76
2022/03/07 03:31:37;;;;;;;;;32.00;28.00;;;;;1.17;57.36;101394.94;4976488;28;45486;-76
2022/03/07 03:34:02;;;;;;;;;33.75;29.00;;;;;1.22;57.15;101400.31;4977648;28;45503;-76
2022/03/07 03:36:27;;;;;;;;;30.75;24.75;;;;;1.16;58.04;101403.59;4976896;28;45421;-77
2022/03/07 03:38:53;;;;;;;;;37.75;32.50;;;;;1.11;57.33;101388.66;4976849;28;45634;-77
2022/03/07 03:41:18;;;;;;;;;38.50;35.00;;;;;1.15;57.71;101398.34;4984647;28;45602;-78
2022/03/07 03:43:43;;;;;;;;;36.00;32.25;;;;;1.01;57.75;101374.47;4995453;28;45493;-75
2022/03/07 03:46:09;;;;;;;;;41.25;30.25;;;;;0.99;57.52;101376.16;4995723;28;45388;-76
2022/03/07 03:48:34;;;;;;;;;39.50;34.50;;;;;1.09;58.18;101404.22;4994782;28;45578;-76
2022/03/07 03:50:59;;;;;;;;;32.00;32.00;;;;;1.08;57.94;101406.78;4990076;28;45522;-76
2022/03/07 03:53:25;;;;;;;;;39.50;35.50;;;;;1.08;58.09;101406.78;4978607;28;46408;-76
2022/03/07 03:55:50;;;;;;;;;31.25;27.25;;;;;1.05;57.72;101410.19;4996082;28;45544;-76
2022/03/07 03:58:15;;;;;;;;;33.50;26.00;;;;;1.04;57.70;101409.28;4995957;28;45336;-75
2022/03/07 04:00:41;;;;;;;;;33.50;29.00;;;;;1.02;57.58;101407.50;4993170;28;45491;-76
2022/03/07 04:03:06;;;;;;;;;42.25;32.00;;;;;0.96;57.86;101400.34;4976068;28;45488;-76
2022/03/07 04:05:31;;;;;;;;;38.50;34.50;;;;;0.99;58.44;101416.06;4976112;28;45429;-75
2022/03/07 04:07:57;;;;;;;;;30.50;28.00;;;;;0.96;58.25;101412.50;4976706;28;45526;-76
2022/03/07 04:10:22;;;;;;;;;35.75;30.50;;;;;0.94;58.46;101408.94;4992274;28;45558;-76
2022/03/07 04:12:48;;;;;;;;;36.00;29.50;;;;;0.89;58.62;101409.66;4995632;28;45453;-77
2022/03/07 04:15:13;;;;;;;;;35.75;27.75;;;;;0.87;58.24;101406.13;4995193;28;45514;-77
2022/03/07 04:17:40;;;;;;;;;41.00;32.00;;;;;0.87;58.41;101408.75;4987378;28;45528;-76
2022/03/07 04:20:07;;;;;;;;;32.50;27.00;;;;;0.89;58.26;101406.19;4984895;28;45595;-75
2022/03/07 04:22:33;;;;;;;;;22.50;19.25;;;;;0.82;58.45;101410.31;4973829;28;46083;-76
2022/03/07 04:24:58;;;;;;;;;34.25;21.75;;;;;0.82;58.57;101409.41;4990847;28;45326;-76
2022/03/07 04:27:24;;;;;;;;;33.75;28.75;;;;;0.80;58.05;101409.38;4993415;28;45296;-77
2022/03/07 04:29:49;;;;;;;;;39.00;35.50;;;;;0.80;58.73;101411.97;4995039;28;45500;-75
2022/03/07 04:32:15;;;;;;;;;33.25;27.00;;;;;0.82;58.59;101414.63;4993794;28;45722;-77
2022/03/07 04:34:40;;;;;;;;;33.25;29.50;;;;;0.73;58.69;101404.81;4995266;28;45565;-77
2022/03/07 04:37:07;;;;;;;;;30.75;26.50;;;;;0.68;59.34;101404.66;4993951;28;45421;-76
2022/03/07 04:39:32;;;;;;;;;40.00;33.75;;;;;0.72;59.42;101413.44;4985943;28;45325;-77
2022/03/07 04:41:58;;;;;;;;;41.75;30.25;;;;;0.72;58.80;101418.66;4995359;28;46030;-77
2022/03/07 04:44:23;;;;;;;;;38.00;30.75;;;;;0.67;58.86;101409.81;4994305;28;45399;-76
2022/03/07 04:46:48;;;;;;;;;30.75;29.50;;;;;0.67;58.64;101421.09;4995524;28;45436;-77
2022/03/07 04:49:14;;;;;;;;;34.75;29.25;;;;;0.62;58.73;101408.75;4992454;28;45598;-75
2022/03/07 04:51:40;;;;;;;;;42.50;37.00;;;;;0.63;59.23;101419.22;4995446;28;46169;-77
2022/03/07 04:54:06;;;;;;;;;33.50;29.00;;;;;0.59;59.43;101416.47;4993598;28;45637;-76
2022/03/07 04:56:31;;;;;;;;;36.50;31.25;;;;;0.57;59.42;101412.94;4995765;28;45445;-76
2022/03/07 04:58:56;;;;;;;;;28.25;23.75;;;;;0.60;59.34;101418.22;4993966;28;45445;-76
2022/03/07 05:01:22;;;;;;;;;36.00;29.00;;;;;0.58;59.26;101422.47;4994325;28;46405;-77
2022/03/07 05:03:47;;;;;;;;;29.50;24.25;;;;;0.55;59.38;101420.69;4994660;28;45539;-76
2022/03/07 05:06:12;;;;;;;;;30.00;27.75;;;;;0.56;59.37;101421.56;4994626;28;45456;-76
2022/03/07 05:08:38;;;;;;;;;30.25;29.00;;;;;0.56;59.27;101426.75;4993382;28;45490;-77
2022/03/07 05:11:04;;;;;;;;;29.50;27.00;;;;;0.53;59.49;101425.84;4994546;28;46105;-75
2022/03/07 05:13:29;;;;;;;;;38.25;31.25;;;;;0.49;59.66;101426.56;4975527;28;45540;-76
2022/03/07 05:15:55;;;;;;;;;30.00;29.00;;;;;0.47;59.35;101416.91;4993244;28;45553;-76
2022/03/07 05:18:20;;;;;;;;;33.50;24.25;;;;;0.39;59.45;101415.78;4981573;28;45396;-76
2022/03/07 05:20:45;;;;;;;;;38.75;32.50;;;;;0.38;59.69;101422.72;4974797;28;46124;-76
2022/03/07 05:23:11;;;;;;;;;35.25;24.75;;;;;0.38;59.65;101422.72;4974455;28;45345;-75
2022/03/07 05:25:36;;;;;;;;;16.50;16.00;;;;;0.32;60.30;101412.09;4994907;28;45304;-76
2022/03/07 05:28:02;;;;;;;;;26.00;19.75;;;;;0.33;60.17;101426.84;4985274;28;45613;-75
2022/03/07 05:30:27;;;;;;;;;38.00;29.75;;;;;0.28;60.00;101408.47;4975898;28;45439;-77
2022/03/07 05:32:53;;;;;;;;;24.75;22.00;;;;;0.30;59.87;101426.72;4975498;28;45396;-76
2022/03/07 05:35:21;;;;;;;;;30.25;28.00;;;;;0.29;60.01;101423.25;4971224;28;45392;-76
2022/03/07 05:37:47;;;;;;;;;31.50;27.50;;;;;0.29;59.90;101424.94;5002881;28;45435;-77
2022/03/07 05:40:13;;;;;;;;;31.25;27.25;;;;;0.24;60.33;101424.78;4977552;28;45361;-76
2022/03/07 05:42:40;;;;;;;;;36.75;30.50;;;;;0.24;59.72;101426.50;4973673;28;45518;-76
2022/03/07 05:45:07;;;;;;;;;29.50;27.50;;;;;0.24;60.16;101423.91;4974215;28;45378;-78
2022/03/07 05:47:33;;;;;;;;;37.25;30.00;;;;;0.22;59.54;101415.19;4974235;28;45547;-76
2022/03/07 05:49:58;;;;;;;;;37.00;33.25;;;;;0.22;59.90;101423.88;4970511;28;45425;-77
2022/03/07 05:52:25;;;;;;;;;40.50;30.25;;;;;0.20;59.70;101424.63;4975941;28;45505;-77
2022/03/07 05:54:50;;;;;;;;;28.50;24.25;;;;;0.17;60.17;101430.63;4976635;28;45472;-75
2022/03/07 05:57:15;;;;;;;;;35.00;28.00;;;;;0.12;59.86;101425.25;4991673;28;45589;-76
2022/03/07 05:59:41;;;;;;;;;28.00;20.50;;;;;0.12;60.12;101420.06;4976522;28;47209;-76
2022/03/07 06:02:06;;;;;;;;;27.50;25.00;;;;;0.11;60.00;101431.28;4978437;28;45328;-76
2022/03/07 06:04:32;;;;;;;;;36.25;28.50;;;;;0.11;59.98;101431.28;4983445;28;45522;-77
2022/03/07 06:06:57;;;;;;;;;33.50;30.00;;;;;0.09;60.12;101437.25;4974295;28;45412;-77
2022/03/07 06:09:23;;;;;;;;;25.75;19.00;;;;;0.08;60.00;101427.69;4983088;28;46185;-76
2022/03/07 06:11:48;;;;;;;;;31.50;24.50;;;;;0.10;60.09;101442.50;4993805;28;45519;-77
2022/03/07 06:14:14;;;;;;;;;30.25;22.00;;;;;0.09;60.16;101429.44;4985362;28;45419;-78
2022/03/07 06:16:39;;;;;;;;;44.75;37.25;;;;;0.06;60.05;101432.84;4975632;28;45475;-76
2022/03/07 06:19:05;;;;;;;;;41.00;35.75;;;;;0.06;60.17;101434.53;4993938;28;46237;-77
2022/03/07 06:21:30;;;;;;;;;36.25;30.50;;;;;0.06;60.37;101435.44;4994497;28;45322;-77
2022/03/07 06:23:55;;;;;;;;;34.75;26.75;;;;;0.05;59.87;101441.47;4993921;28;45379;-77
2022/03/07 06:26:21;;;;;;;;;32.00;26.75;;;;;0.07;60.31;101441.50;4995084;28;45473;-76
2022/03/07 06:28:46;;;;;;;;;37.00;27.25;;;;;0.07;60.05;101436.31;4992647;28;45403;-77
2022/03/07 06:31:11;;;;;;;;;36.50;34.00;;;;;0.10;60.25;101442.50;4994422;28;45414;-77
2022/03/07 06:33:37;;;;;;;;;35.50;33.25;;;;;0.29;59.95;101438.88;4992699;28;45540;-76
2022/03/07 06:36:05;;;;;;;;;36.00;30.50;;;;;0.55;59.08;101438.91;4993864;28;45317;-75
2022/03/07 06:38:30;;;;;;;;;40.00;32.00;;;;;0.78;58.59;101444.88;4992821;28;45962;-76
2022/03/07 06:40:56;;;;;;;;;40.25;35.00;;;;;1.09;58.07;101439.81;4993870;28;45392;-76
2022/03/07 06:43:21;;;;;;;;;45.50;34.00;;;;;1.42;56.78;101440.00;4992638;28;45406;-77
2022/03/07 06:45:46;;;;;;;;;40.00;29.00;;;;;1.65;56.11;101437.22;4974991;28;45310;-77
2022/03/07 06:48:12;;;;;;;;;35.50;31.25;;;;;2.00;54.86;101442.59;4993801;28;46040;-80
2022/03/07 06:50:38;;;;;;;;;33.25;27.00;;;;;2.40;53.56;101446.28;4995709;28;45464;-76
2022/03/07 06:53:03;;;;;;;;;29.75;26.00;;;;;2.67;52.85;101444.44;4997393;28;45345;-78
2022/03/07 06:55:29;;;;;;;;;38.50;33.50;;;;;3.12;52.26;101434.22;4996479;28;45238;-80
2022/03/07 06:57:54;;;;;;;;;36.25;31.75;;;;;3.49;50.12;101450.75;4994741;28;45409;-77
2022/03/07 07:00:20;;;;;;;;;33.50;26.00;;;;;3.66;50.16;101435.44;4991995;28;45520;-77
2022/03/07 07:02:46;;;;;;;;;27.25;24.50;;;;;3.74;49.15;101455.69;4986893;28;45487;-78
2022/03/07 07:05:13;;;;;;;;;33.50;29.00;;;;;4.09;48.27;101433.75;4998005;28;45337;-77
2022/03/07 07:07:39;;;;;;;;;45.00;36.00;;;;;4.58;48.03;101432.06;4996518;28;45480;-77
2022/03/07 07:10:07;;;;;;;;;38.50;30.75;;;;;5.15;45.78;101432.19;4981427;28;45712;-78
2022/03/07 07:12:37;;;;;;;;;31.75;29.75;;;;;5.36;45.47;101426.41;4976873;28;45417;-79
2022/03/07 07:15:04;;;;;;;;;39.75;35.50;;;;;5.78;45.33;101425.22;4976803;28;45314;-76
2022/03/07 07:17:30;;;;;;;;;37.00;27.25;;;;;6.18;43.49;101425.75;4986739;28;45396;-79
2022/03/07 07:19:55;;;;;;;;;40.75;32.00;;;;;6.63;43.26;101417.47;4982060;28;45412;-78
2022/03/07 07:22:21;;;;;;;;;40.75;34.00;;;;;7.14;41.81;101421.41;4977703;28;45478;-76
2022/03/07 07:24:46;;;;;;;;;41.75;35.00;;;;;7.56;41.08;101426.94;4971861;28;45445;-75
2022/03/07 07:27:11;;;;;;;;;36.50;31.00;;;;;7.64;40.63;101420.84;4995924;28;45432;-78
2022/03/07 07:29:37;;;;;;;;;33.25;26.50;;;;;7.83;39.63;101413.06;4995667;28;45484;-77
2022/03/07 07:32:03;;;;;;;;;40.75;36.25;;;;;7.99;39.72;101424.53;4978591;28;45452;-76
2022/03/07 07:34:28;;;;;;;;;51.75;43.00;;;;;8.22;38.30;101427.25;4997092;28;45410;-76
2022/03/07 07:36:54;;;;;;;;;40.50;36.75;;;;;8.27;38.82;101422.88;4997020;28;45492;-77
2022/03/07 07:39:19;;;;;;;;;33.25;28.00;;;;;8.14;38.78;101418.47;4988614;28;45561;-78
2022/03/07 07:41:45;;;;;;;;;48.75;39.00;;;;;7.95;38.74;101433.28;4976364;28;45343;-77
2022/03/07 07:44:10;;;;;;;;;40.75;38.00;;;;;8.20;38.25;101450.09;4975981;28;45389;-78
2022/03/07 07:46:36;;;;;;;;;42.25;36.75;;;;;8.23;38.16;101430.75;4959622;28;48572;-81
2022/03/07 07:49:01;;;;;;;;;31.50;28.00;;;;;8.69;36.96;101444.09;4984171;28;45319;-81
2022/03/07 07:51:27;;;;;;;;;38.25;33.75;;;;;8.85;36.79;101429.16;4984131;28;45334;-76
2022/03/07 07:53:52;;;;;;;;;37.00;26.25;;;;;9.16;36.08;101422.13;4985728;28;45561;-77
2022/03/07 07:56:18;;;;;;;;;39.00;35.00;;;;;9.38;35.96;101408.91;4988389;28;45437;-77
2022/03/07 07:58:43;;;;;;;;;40.50;40.25;;;;;9.62;35.58;101417.66;4982540;28;45401;-85
2022/03/07 08:01:08;;;;;;;;;55.00;39.25;;;;;9.80;34.52;101427.28;4993911;28;45471;-77
2022/03/07 08:03:34;;;;;;;;;42.25;36.25;;;;;9.11;35.21;101421.28;4982681;28;45464;-77
2022/03/07 08:06:00;;;;;;;;;38.00;31.75;;;;;8.61;35.58;101423.00;4995952;28;46537;-76
2022/03/07 08:08:25;;;;;;;;;44.50;39.75;;;;;8.70;35.72;101427.41;4994099;28;45833;-76
2022/03/07 08:10:51;;;;;;;;;40.00;35.50;;;;;9.17;35.65;101415.09;4981687;28;45491;-77
2022/03/07 08:13:16;;;;;;;;;46.25;37.00;;;;;9.50;35.01;101413.28;4995616;28;45502;-77
2022/03/07 08:15:42;;;;;;;;;37.75;35.75;;;;;9.64;34.26;101400.94;4980513;28;45558;-79
2022/03/07 08:18:08;;;;;;;;;40.50;36.00;;;;;9.88;33.87;101415.81;4988968;28;45494;-76
2022/03/07 08:20:34;;;;;;;;;37.00;35.25;;;;;9.93;33.96;101397.31;4984148;28;45448;-76
2022/03/07 08:23:00;;;;;;;;;45.00;39.00;;;;;9.98;32.94;101410.50;4991649;28;45625;-76
2022/03/07 08:25:25;;;;;;;;;33.00;32.25;;;;;9.94;33.57;101412.28;4982640;28;45445;-76
2022/03/07 08:27:51;;;;;;;;;39.75;36.00;;;;;10.01;33.48;101421.06;4990392;28;45404;-76
2022/03/07 08:30:20;;;;;;;;;40.00;35.75;;;;;10.23;33.08;101411.25;4987410;28;45325;-83
2022/03/07 08:32:45;;;;;;;;;35.25;28.50;;;;;9.91;32.34;101401.72;4989036;28;45448;-86
2022/03/07 08:35:12;;;;;;;;;33.75;28.75;;;;;10.09;32.65;101421.88;5004221;28;46171;-79
2022/03/07 08:37:37;;;;;;;;;45.00;34.25;;;;;9.27;34.12;101419.47;4999172;28;45344;-75
2022/03/07 08:40:05;;;;;;;;;41.00;32.00;;;;;9.61;34.15;101416.81;4991462;28;45451;-77
2022/03/07 08:42:31;;;;;;;;;43.25;34.75;;;;;9.29;34.27;101409.78;4975740;28;45334;-75
2022/03/07 08:44:56;;;;;;;;;36.25;32.25;;;;;9.69;34.10;101404.44;4976357;28;46127;-76
2022/03/07 08:47:22;;;;;;;;;36.00;29.50;;;;;10.31;33.33;101394.47;4975759;28;45276;-75
2022/03/07 08:49:47;;;;;;;;;20.25;14.25;;;;;10.60;32.53;101393.44;5002711;28;45228;-86
2022/03/07 08:52:17;;;;;;;;;32.75;30.75;;;;;10.61;32.10;101389.94;4982480;28;45255;-89
2022/03/07 08:54:43;;;;;;;;;28.00;25.25;;;;;10.39;32.18;101394.47;4987018;28;45595;-81
2022/03/07 08:57:09;;;;;;;;;32.50;28.75;;;;;10.23;32.47;101405.97;4963709;28;45444;-82
2022/03/07 08:59:34;;;;;;;;;40.75;37.25;;;;;10.28;32.65;101404.19;4996877;28;45441;-81
2022/03/07 09:02:00;;;;;;;;;37.25;34.00;;;;;10.36;32.42;101407.69;4985078;28;45538;-86
2022/03/07 09:04:25;;;;;;;;;40.75;39.25;;;;;10.59;32.31;101404.03;4961682;28;46431;-82
2022/03/07 09:06:52;;;;;;;;;45.00;39.50;;;;;10.48;31.44;101404.09;4980976;28;45687;-80
2022/03/07 09:09:17;;;;;;;;;41.50;36.00;;;;;10.35;31.94;101411.22;4999334;28;45467;-80
2022/03/07 09:11:43;;;;;;;;;39.75;33.75;;;;;10.42;32.17;101399.72;4995831;28;45475;-80
2022/03/07 09:14:08;;;;;;;;;38.75;34.50;;;;;10.44;31.83;101383.84;4977863;28;45520;-82
2022/03/07 09:16:33;;;;;;;;;38.50;33.75;;;;;10.82;31.75;101393.28;4976145;28;45401;-78
2022/03/07 09:18:59;;;;;;;;;41.75;36.00;;;;;11.11;31.50;101393.00;4980517;28;45475;-77
2022/03/07 09:21:24;;;;;;;;;33.00;27.75;;;;;10.93;30.64;101393.19;4958328;28;45499;-80
2022/03/07 09:23:50;;;;;;;;;34.00;29.50;;;;;11.52;31.59;101381.16;4942518;28;48080;-78
2022/03/07 09:26:15;;;;;;;;;42.00;34.00;;;;;11.84;30.34;101379.91;4976405;28;45429;-79
2022/03/07 09:28:40;;;;;;;;;42.25;36.75;;;;;11.79;29.70;101387.00;4987493;28;46074;-76
2022/03/07 09:31:06;;;;;;;;;35.50;33.00;;;;;11.68;30.33;101379.19;4978416;28;45469;-77
2022/03/07 09:33:32;;;;;;;;;33.50;30.00;;;;;12.26;29.55;101388.19;4980174;28;47334;-86
2022/03/07 09:35:58;;;;;;;;;39.75;34.75;;;;;11.96;28.97;101381.53;4997155;28;45445;-78
2022/03/07 09:38:24;;;;;;;;;36.75;25.00;;;;;11.73;29.80;101387.09;4994503;28;45342;-76
2022/03/07 09:40:51;;;;;;;;;39.75;35.75;;;;;11.64;30.14;101393.34;4993183;28;45323;-77
2022/03/07 09:43:17;;;;;;;;;35.25;32.25;;;;;11.73;29.96;101387.09;4966772;28;46175;-76
2022/03/07 09:45:43;;;;;;;;;32.00;27.00;;;;;11.94;29.11;101385.13;4987007;28;45303;-79
2022/03/07 09:48:11;;;;;;;;;44.00;36.00;;;;;12.23;29.10;101382.94;4990344;28;45609;-76
2022/03/07 09:50:36;;;;;;;;;60.00;49.75;;;;;12.09;29.11;101380.47;4994057;28;45759;-77
2022/03/07 09:53:01;;;;;;;;;34.00;29.25;;;;;12.48;28.25;101360.47;4994774;28;46603;-78
2022/03/07 09:55:27;;;;;;;;;36.00;30.25;;;;;13.06;28.00;101361.31;4991596;28;45443;-78
2022/03/07 09:57:52;;;;;;;;;39.25;36.00;;;;;13.37;27.22;101368.72;4982830;28;45506;-78
2022/03/07 10:00:18;;;;;;;;;27.75;26.00;;;;;13.44;26.62;101370.38;4994787;28;45560;-78
2022/03/07 10:02:58;;;;;;;;;33.00;25.50;;;;;13.33;26.89;101357.28;4996631;28;46040;-82
2022/03/07 10:05:28;;;;;;;;;33.75;30.25;;;;;12.80;26.58;101374.13;4979222;28;45329;-81
2022/03/07 10:07:54;;;;;;;;;32.50;23.75;;;;;12.81;27.43;101359.06;4982775;28;45606;-80
2022/03/07 10:10:20;;;;;;;;;27.25;23.25;;;;;12.70;27.17;101353.94;4987047;28;45555;-81
2022/03/07 10:12:48;;;;;;;;;33.50;27.75;;;;;13.09;27.14;101348.84;4987264;28;45362;-81
2022/03/07 10:15:18;;;;;;;;;32.25;25.50;;;;;12.85;26.82;101355.47;4988361;28;45317;-81
2022/03/07 10:17:52;;;;;;;;;32.75;28.00;;;;;12.74;27.03;101376.00;4994732;28;45352;-81
2022/03/07 10:20:20;;;;;;;;;33.00;29.50;;;;;12.35;27.26;101359.81;4975304;28;45366;-82
2022/03/07 10:22:48;;;;;;;;;31.75;27.75;;;;;12.25;27.14;101362.59;4984488;28;46553;-81
2022/03/07 10:25:14;;;;;;;;;25.00;25.00;;;;;11.96;27.46;101357.69;4984723;28;45547;-81
2022/03/07 10:27:44;;;;;;;;;35.50;27.50;;;;;11.85;27.72;101355.13;4979830;28;45478;-81
2022/03/07 10:30:11;;;;;;;;;40.50;36.25;;;;;11.67;27.86;101355.38;4981816;28;45540;-82
2022/03/07 10:32:37;;;;;;;;;39.25;35.75;;;;;11.32;28.14;101344.28;4988495;28;47027;-81
2022/03/07 10:35:03;;;;;;;;;36.25;30.50;;;;;11.48;27.96;101345.00;4984381;28;45466;-82
2022/03/07 10:37:33;;;;;;;;;25.50;24.25;;;;;11.65;28.21;101344.81;4985211;28;45431;-82
2022/03/07 10:39:59;;;;;;;;;39.25;31.75;;;;;11.89;28.06;101335.69;4975165;28;45611;-81
2022/03/07 10:42:24;;;;;;;;;31.50;26.50;;;;;11.96;27.51;101340.91;4974116;28;46511;-81
2022/03/07 10:44:49;;;;;;;;;39.75;31.50;;;;;11.67;27.39;101342.13;4990523;28;45339;-80
2022/03/07 10:47:17;;;;;;;;;28.75;24.00;;;;;11.20;27.66;101355.91;4982925;28;45634;-81
2022/03/07 10:49:50;;;;;;;;;29.25;25.50;;;;;11.31;28.30;101331.06;4992420;28;45615;-81
2022/03/07 10:52:16;;;;;;;;;37.75;33.50;;;;;11.23;27.69;101340.88;4976938;28;47308;-80
2022/03/07 10:54:41;;;;;;;;;32.50;28.50;;;;;11.24;27.76;101340.00;4988305;28;45463;-81
2022/03/07 10:57:08;;;;;;;;;40.00;36.00;;;;;10.84;28.11;101355.34;4984562;28;45273;-81
2022/03/07 10:59:35;;;;;;;;;37.00;31.25;;;;;10.46;29.02;101340.69;4996798;28;45417;-82
2022/03/07 11:02:04;;;;;;;;;41.50;34.50;;;;;10.33;29.52;101339.00;4993216;28;45538;-82
2022/03/07 11:04:30;;;;;;;;;35.75;29.75;;;;;10.71;28.75;101339.63;4989028;28;45415;-81
2022/03/07 11:06:56;;;;;;;;;40.50;33.25;;;;;10.76;29.15;101333.38;5000396;28;45313;-80
2022/03/07 11:09:21;;;;;;;;;32.00;27.25;;;;;10.94;28.32;101320.88;5002024;28;45344;-81